createdAt,value
2018-05-13T00:00:57.573Z,19.90
2018-05-13T00:03:25.153Z,20.67
2018-05-13T00:05:52.788Z,21.53
2018-05-13T00:08:20.351Z,20.50
2018-05-13T00:10:47.965Z,22.73
2018-05-13T00:13:16.329Z,22.93
2018-05-13T00:15:43.920Z,23.10
2018-05-13T00:18:12.265Z,22.53
2018-05-13T00:20:39.851Z,22.13
2018-05-13T00:23:07.434Z,22.17
2018-05-13T00:25:35.011Z,25.47
2018-05-13T00:28:02.604Z,23.97
2018-05-13T00:30:30.206Z,22.93
2018-05-13T00:32:57.846Z,23.03
2018-05-13T00:35:25.423Z,25.47
2018-05-13T00:37:53.727Z,23.90
2018-05-13T00:40:21.529Z,23.83
2018-05-13T00:42:49.109Z,22.00
2018-05-13T00:45:16.737Z,23.53
2018-05-13T00:47:44.329Z,21.90
2018-05-13T00:50:11.903Z,23.37
2018-05-13T00:52:39.480Z,26.50
2018-05-13T00:55:07.113Z,24.23
2018-05-13T00:57:34.697Z,25.27
2018-05-13T01:00:02.275Z,25.93
2018-05-13T01:02:29.909Z,26.00
2018-05-13T01:04:57.503Z,26.13
2018-05-13T01:07:25.113Z,27.90
2018-05-13T01:09:53.623Z,26.37
2018-05-13T01:12:21.211Z,23.33
2018-05-13T01:14:49.556Z,25.20
2018-05-13T01:17:17.913Z,23.20
2018-05-13T01:19:45.530Z,24.97
2018-05-13T01:22:13.113Z,23.00
2018-05-13T01:24:40.692Z,25.20
2018-05-13T01:27:08.338Z,25.37
2018-05-13T01:29:35.954Z,24.80
2018-05-13T01:32:03.604Z,24.43
2018-05-13T01:34:31.217Z,26.53
2018-05-13T01:36:58.807Z,25.20
2018-05-13T01:39:26.391Z,27.33
2018-05-13T01:41:53.969Z,27.37
2018-05-13T01:44:21.613Z,26.67
2018-05-13T01:46:49.950Z,27.27
2018-05-13T01:49:18.299Z,26.97
2018-05-13T01:51:45.982Z,27.43
2018-05-13T01:54:15.110Z,26.93
2018-05-13T01:56:42.741Z,27.60
2018-05-13T01:59:11.138Z,28.17
2018-05-13T02:01:38.740Z,28.90
2018-05-13T02:04:06.314Z,29.60
2018-05-13T02:06:33.884Z,29.80
2018-05-13T02:09:01.469Z,28.27
2018-05-13T02:11:29.071Z,28.33
2018-05-13T02:13:56.739Z,28.67
2018-05-13T02:16:24.341Z,30.43
2018-05-13T02:18:51.961Z,29.63
2018-05-13T02:21:20.321Z,30.13
2018-05-13T02:23:47.917Z,30.37
2018-05-13T02:26:16.281Z,29.07
2018-05-13T02:28:44.709Z,28.57
2018-05-13T02:31:12.617Z,29.47
2018-05-13T02:33:40.205Z,29.20
2018-05-13T02:36:07.810Z,27.37
2018-05-13T02:38:35.376Z,28.13
2018-05-13T02:41:02.992Z,27.27
2018-05-13T02:43:30.580Z,27.63
2018-05-13T02:45:58.918Z,28.17
2018-05-13T02:48:26.492Z,27.17
2018-05-13T02:50:54.099Z,29.13
2018-05-13T02:53:21.720Z,29.93
2018-05-13T02:55:49.301Z,31.40
2018-05-13T02:58:16.905Z,30.17
2018-05-13T03:00:44.524Z,29.50
2018-05-13T03:03:12.925Z,30.87
2018-05-13T03:05:40.524Z,29.67
2018-05-13T03:08:08.171Z,30.13
2018-05-13T03:10:35.770Z,31.60
2018-05-13T03:13:04.097Z,32.70
2018-05-13T03:15:31.736Z,29.30
2018-05-13T03:17:59.778Z,31.37
2018-05-13T03:20:28.846Z,31.17
2018-05-13T03:22:57.229Z,30.37
2018-05-13T03:25:24.826Z,31.87
2018-05-13T03:27:52.416Z,30.63
2018-05-13T03:30:20.017Z,30.17
2018-05-13T03:32:48.416Z,32.67
2018-05-13T03:35:16.779Z,33.07
2018-05-13T03:37:44.411Z,35.07
2018-05-13T03:40:12.041Z,31.07
2018-05-13T03:42:39.781Z,32.17
2018-05-13T03:45:07.383Z,32.90
2018-05-13T03:47:34.985Z,32.13
2018-05-13T03:50:02.567Z,32.27
2018-05-13T03:52:31.631Z,32.60
2018-05-13T03:54:59.217Z,33.37
2018-05-13T03:57:26.790Z,32.83
2018-05-13T03:59:54.429Z,31.17
2018-05-13T04:02:22.056Z,31.27
2018-05-13T04:04:50.473Z,31.80
2018-05-13T04:07:18.062Z,32.67
2018-05-13T04:09:57.478Z,32.90
2018-05-13T04:12:36.914Z,33.90
2018-05-13T04:18:11.285Z,35.80
2018-05-13T04:20:39.659Z,32.17
2018-05-13T04:23:07.283Z,34.97
2018-05-13T04:25:34.877Z,34.47
2018-05-13T04:28:02.472Z,32.67
2018-05-13T04:30:30.833Z,32.70
2018-05-13T04:32:59.231Z,32.97
2018-05-13T04:35:27.746Z,33.20
2018-05-13T04:37:55.345Z,35.70
2018-05-13T04:40:22.961Z,32.53
2018-05-13T04:42:51.335Z,32.17
2018-05-13T04:45:20.607Z,31.27
2018-05-13T04:47:48.220Z,32.77
2018-05-13T04:50:15.825Z,30.90
2018-05-13T04:52:43.432Z,29.80
2018-05-13T04:55:11.775Z,33.93
2018-05-13T04:57:39.432Z,34.90
2018-05-13T05:00:07.008Z,31.60
2018-05-13T05:02:34.633Z,34.90
2018-05-13T05:05:02.280Z,31.33
2018-05-13T05:07:30.670Z,33.70
2018-05-13T05:09:59.091Z,32.60
2018-05-13T05:12:26.722Z,36.57
2018-05-13T05:14:55.083Z,32.50
2018-05-13T05:17:22.678Z,37.23
2018-05-13T05:19:50.274Z,36.43
2018-05-13T05:22:17.935Z,35.20
2018-05-13T05:24:45.601Z,36.83
2018-05-13T05:27:13.195Z,36.80
2018-05-13T05:29:40.812Z,36.67
2018-05-13T05:32:08.433Z,39.10
2018-05-13T05:34:36.041Z,38.63
2018-05-13T05:37:03.633Z,42.60
2018-05-13T05:39:32.046Z,41.60
2018-05-13T05:41:59.680Z,42.77
2018-05-13T05:44:27.254Z,45.77
2018-05-13T05:46:54.844Z,46.27
2018-05-13T05:49:23.251Z,48.07
2018-05-13T05:51:51.602Z,43.10
2018-05-13T05:54:19.217Z,45.77
2018-05-13T05:56:46.810Z,45.73
2018-05-13T05:59:15.262Z,44.63
2018-05-13T06:01:43.609Z,51.30
2018-05-13T06:04:11.221Z,45.70
2018-05-13T06:06:38.786Z,54.27
2018-05-13T06:09:06.378Z,52.37
2018-05-13T06:11:34.027Z,59.57
2018-05-13T06:14:02.359Z,55.77
2018-05-13T06:16:29.915Z,62.40
2018-05-13T06:18:58.929Z,53.83
2018-05-13T06:21:26.529Z,55.27
2018-05-13T06:23:54.118Z,59.17
2018-05-13T06:26:21.732Z,55.73
2018-05-13T06:28:50.137Z,53.83
2018-05-13T06:31:17.722Z,56.33
2018-05-13T06:33:45.297Z,59.80
2018-05-13T06:36:12.884Z,58.67
2018-05-13T06:38:40.488Z,52.97
2018-05-13T06:41:08.874Z,53.27
2018-05-13T06:43:37.251Z,54.33
2018-05-13T06:46:05.605Z,48.70
2018-05-13T06:48:33.218Z,52.40
2018-05-13T06:51:00.933Z,49.57
2018-05-13T06:53:29.225Z,49.63
2018-05-13T06:55:56.825Z,55.33
2018-05-13T06:58:24.459Z,51.47
2018-05-13T07:00:52.040Z,50.27
2018-05-13T07:03:20.371Z,52.83
2018-05-13T07:05:48.045Z,49.57
2018-05-13T07:08:15.620Z,54.00
2018-05-13T07:10:43.200Z,51.27
2018-05-13T07:13:10.810Z,54.17
2018-05-13T07:15:38.432Z,49.47
2018-05-13T07:18:06.047Z,52.40
2018-05-13T07:20:33.617Z,53.90
2018-05-13T07:23:01.369Z,50.03
2018-05-13T07:25:29.032Z,51.37
2018-05-13T07:27:56.615Z,48.67
2018-05-13T07:30:25.238Z,53.63
2018-05-13T07:32:52.841Z,55.10
2018-05-13T07:35:21.246Z,50.60
2018-05-13T07:37:48.851Z,52.07
2018-05-13T07:40:16.456Z,53.67
2018-05-13T07:42:44.792Z,54.17
2018-05-13T07:45:12.370Z,51.50
2018-05-13T07:47:39.932Z,51.80
2018-05-13T07:50:07.530Z,54.00
2018-05-13T07:52:35.884Z,51.57
2018-05-13T07:55:04.140Z,57.00
2018-05-13T07:57:31.720Z,51.17
2018-05-13T07:59:59.309Z,51.30
2018-05-13T08:02:27.694Z,51.93
2018-05-13T08:04:55.243Z,54.67
2018-05-13T08:07:22.893Z,57.37
2018-05-13T08:09:50.499Z,50.73
2018-05-13T08:12:18.863Z,52.57
2018-05-13T08:14:46.436Z,53.13
2018-05-13T08:17:14.853Z,53.17
2018-05-13T08:19:42.363Z,52.20
2018-05-13T08:22:09.963Z,53.53
2018-05-13T08:24:37.550Z,48.60
2018-05-13T08:27:05.161Z,54.67
2018-05-13T08:29:32.767Z,52.70
2018-05-13T08:32:01.223Z,55.97
2018-05-13T08:34:28.848Z,57.77
2018-05-13T08:36:56.426Z,55.93
2018-05-13T08:39:24.064Z,56.37
2018-05-13T08:41:51.713Z,57.00
2018-05-13T08:44:19.292Z,58.50
2018-05-13T08:46:46.888Z,55.50
2018-05-13T08:49:14.494Z,56.57
2018-05-13T08:51:42.143Z,56.23
2018-05-13T08:54:10.708Z,60.37
2018-05-13T08:56:38.305Z,55.77
2018-05-13T08:59:06.706Z,58.17
2018-05-13T09:01:35.055Z,59.63
2018-05-13T09:04:02.695Z,54.43
2018-05-13T09:06:31.031Z,55.47
2018-05-13T09:08:59.431Z,53.77
2018-05-13T09:11:27.017Z,54.40
2018-05-13T09:13:54.625Z,57.13
2018-05-13T09:16:22.221Z,58.13
2018-05-13T09:18:51.186Z,59.30
2018-05-13T09:21:19.622Z,54.13
2018-05-13T09:23:47.210Z,56.07
2018-05-13T09:26:14.794Z,55.57
2018-05-13T09:28:43.317Z,57.13
2018-05-13T09:31:11.688Z,56.13
2018-05-13T09:33:40.043Z,57.07
2018-05-13T09:36:07.667Z,57.67
2018-05-13T09:38:35.259Z,54.77
2018-05-13T09:41:02.889Z,60.60
2018-05-13T09:43:31.757Z,61.70
2018-05-13T09:45:59.374Z,59.83
2018-05-13T09:48:27.068Z,56.50
2018-05-13T09:50:54.647Z,59.90
2018-05-13T09:53:22.280Z,56.37
2018-05-13T09:55:49.863Z,57.77
2018-05-13T09:58:17.464Z,57.47
2018-05-13T10:00:45.063Z,58.00
2018-05-13T10:03:12.643Z,64.13
2018-05-13T10:05:40.228Z,59.77
2018-05-13T10:08:08.588Z,52.77
2018-05-13T10:10:36.392Z,57.93
2018-05-13T10:13:03.998Z,56.47
2018-05-13T10:15:31.591Z,55.10
2018-05-13T10:17:59.166Z,57.43
2018-05-13T10:20:26.772Z,55.57
2018-05-13T10:22:55.132Z,57.30
2018-05-13T10:25:22.783Z,54.20
2018-05-13T10:27:50.367Z,53.00
2018-05-13T10:30:18.065Z,55.23
2018-05-13T10:32:46.415Z,54.57
2018-05-13T10:35:13.986Z,57.07
2018-05-13T10:37:42.338Z,58.20
2018-05-13T10:40:09.950Z,52.37
2018-05-13T10:42:38.319Z,54.23
2018-05-13T10:45:06.702Z,51.13
2018-05-13T10:47:35.705Z,51.73
2018-05-13T10:50:05.356Z,51.63
2018-05-13T10:52:32.986Z,51.90
2018-05-13T10:55:01.400Z,55.80
2018-05-13T10:57:29.042Z,50.93
2018-05-13T10:59:57.417Z,55.40
2018-05-13T11:02:25.791Z,50.80
2018-05-13T11:04:54.136Z,51.63
2018-05-13T11:07:21.764Z,53.57
2018-05-13T11:09:49.361Z,51.17
2018-05-13T11:12:16.943Z,53.07
2018-05-13T11:14:44.572Z,52.67
2018-05-13T11:17:12.193Z,55.03
2018-05-13T11:19:40.580Z,50.77
2018-05-13T11:22:09.016Z,50.37
2018-05-13T11:24:36.600Z,49.03
2018-05-13T11:27:04.243Z,49.00
2018-05-13T11:29:31.841Z,47.03
2018-05-13T11:32:00.350Z,51.13
2018-05-13T11:34:28.776Z,49.67
2018-05-13T11:36:56.396Z,49.90
2018-05-13T11:39:24.008Z,50.50
2018-05-13T11:41:51.625Z,50.67
2018-05-13T11:44:19.239Z,50.40
2018-05-13T11:46:46.920Z,47.80
2018-05-13T11:49:14.478Z,51.30
2018-05-13T11:51:42.171Z,51.83
2018-05-13T11:54:09.870Z,49.73
2018-05-13T11:56:37.520Z,47.77
2018-05-13T11:59:05.255Z,53.77
2018-05-13T12:01:32.862Z,47.03
2018-05-13T12:04:01.237Z,49.20
2018-05-13T12:06:28.865Z,45.60
2018-05-13T12:08:56.456Z,53.73
2018-05-13T12:11:24.066Z,50.37
2018-05-13T12:13:51.663Z,49.30
2018-05-13T12:16:19.286Z,54.03
2018-05-13T12:18:47.652Z,47.30
2018-05-13T12:21:15.246Z,51.80
2018-05-13T12:23:43.847Z,49.07
2018-05-13T12:26:11.462Z,49.57
2018-05-13T12:28:39.087Z,46.43
2018-05-13T12:31:06.681Z,51.40
2018-05-13T12:33:34.296Z,50.17
2018-05-13T12:36:01.929Z,49.23
2018-05-13T12:38:30.310Z,48.80
2018-05-13T12:40:57.916Z,54.43
2018-05-13T12:43:26.485Z,49.87
2018-05-13T12:45:54.859Z,49.37
2018-05-13T12:48:22.437Z,51.10
2018-05-13T12:50:50.129Z,48.27
2018-05-13T12:53:17.798Z,47.10
2018-05-13T12:55:45.399Z,48.53
2018-05-13T12:58:13.092Z,48.50
2018-05-13T13:00:41.529Z,47.63
2018-05-13T13:03:09.134Z,47.57
2018-05-13T13:05:36.725Z,50.37
2018-05-13T13:08:04.328Z,47.37
2018-05-13T13:10:31.920Z,49.17
2018-05-13T13:12:59.538Z,50.27
2018-05-13T13:15:27.166Z,49.97
2018-05-13T13:17:54.742Z,49.53
2018-05-13T13:20:22.345Z,48.03
2018-05-13T13:22:50.015Z,49.13
2018-05-13T13:25:17.680Z,53.90
2018-05-13T13:27:45.262Z,49.90
2018-05-13T13:30:12.863Z,49.90
2018-05-13T13:32:41.293Z,52.33
2018-05-13T13:35:08.931Z,53.20
2018-05-13T13:37:37.291Z,51.37
2018-05-13T13:40:04.890Z,56.90
2018-05-13T13:42:32.503Z,53.80
2018-05-13T13:45:00.402Z,55.17
2018-05-13T13:47:28.070Z,54.73
2018-05-13T13:49:56.447Z,55.80
2018-05-13T13:52:24.874Z,56.33
2018-05-13T13:54:52.544Z,54.93
2018-05-13T13:57:20.149Z,56.10
2018-05-13T13:59:47.832Z,60.10
2018-05-13T14:02:15.418Z,58.47
2018-05-13T14:04:43.780Z,54.00
2018-05-13T14:07:12.136Z,55.07
2018-05-13T14:09:40.983Z,56.60
2018-05-13T14:12:08.703Z,59.23
2018-05-13T14:14:36.283Z,61.00
2018-05-13T14:17:03.890Z,62.93
2018-05-13T14:19:31.493Z,59.67
2018-05-13T14:21:59.119Z,61.93
2018-05-13T14:24:26.750Z,56.90
2018-05-13T14:26:54.428Z,57.33
2018-05-13T14:29:22.049Z,64.17
2018-05-13T14:31:49.626Z,60.67
2018-05-13T14:34:17.232Z,61.00
2018-05-13T14:36:45.607Z,62.87
2018-05-13T14:39:13.967Z,55.57
2018-05-13T14:41:41.684Z,59.07
2018-05-13T14:44:10.196Z,62.17
2018-05-13T14:46:37.795Z,62.57
2018-05-13T14:49:05.380Z,60.03
2018-05-13T14:51:32.985Z,62.03
2018-05-13T14:54:02.004Z,60.43
2018-05-13T14:56:29.640Z,68.43
2018-05-13T14:58:58.035Z,64.33
2018-05-13T15:01:25.643Z,67.80
2018-05-13T15:03:55.277Z,63.70
2018-05-13T15:06:22.868Z,66.03
2018-05-13T15:08:50.479Z,63.27
2018-05-13T15:11:18.070Z,60.17
2018-05-13T15:13:45.722Z,69.87
2018-05-13T15:16:14.314Z,60.63
2018-05-13T15:18:42.854Z,65.23
2018-05-13T15:21:11.402Z,65.43
2018-05-13T15:23:39.058Z,63.70
2018-05-13T15:26:08.546Z,66.97
2018-05-13T15:28:36.902Z,66.07
2018-05-13T15:31:04.532Z,64.07
2018-05-13T15:33:32.160Z,71.63
2018-05-13T15:36:00.580Z,62.67
2018-05-13T15:38:28.191Z,54.60
2018-05-13T15:40:56.618Z,61.10
2018-05-13T15:43:25.146Z,61.80
2018-05-13T15:45:52.632Z,53.00
2018-05-13T15:48:20.226Z,62.23
2018-05-13T15:50:48.572Z,56.27
2018-05-13T15:53:16.171Z,52.83
2018-05-13T15:55:44.528Z,58.73
2018-05-13T15:58:12.146Z,58.70
2018-05-13T16:00:39.778Z,55.47
2018-05-13T16:03:07.400Z,57.47
2018-05-13T16:05:35.005Z,48.47
2018-05-13T16:08:02.656Z,55.37
2018-05-13T16:10:30.288Z,55.67
2018-05-13T16:12:58.686Z,51.80
2018-05-13T16:15:26.305Z,48.30
2018-05-13T16:17:53.916Z,50.60
2018-05-13T16:20:22.763Z,49.50
2018-05-13T16:22:52.043Z,55.17
2018-05-13T16:25:19.679Z,50.37
2018-05-13T16:27:47.391Z,49.90
2018-05-13T16:30:15.830Z,50.10
2018-05-13T16:32:43.428Z,46.67
2018-05-13T16:35:11.065Z,56.37
2018-05-13T16:37:38.701Z,52.43
2018-05-13T16:40:06.302Z,52.17
2018-05-13T16:42:33.894Z,49.43
2018-05-13T16:45:03.040Z,49.10
2018-05-13T16:47:30.701Z,52.87
2018-05-13T16:49:58.541Z,50.10
2018-05-13T16:52:26.229Z,52.17
2018-05-13T16:54:53.834Z,52.27
2018-05-13T16:57:21.434Z,50.10
2018-05-13T16:59:49.866Z,56.23
2018-05-13T17:02:17.492Z,51.17
2018-05-13T17:04:45.118Z,51.83
2018-05-13T17:07:12.734Z,54.17
2018-05-13T17:09:40.539Z,49.70
2018-05-13T17:12:08.086Z,52.80
2018-05-13T17:14:35.684Z,50.03
2018-05-13T17:17:03.346Z,52.57
2018-05-13T17:19:31.641Z,55.43
2018-05-13T17:22:01.061Z,49.63
2018-05-13T17:24:28.763Z,51.53
2018-05-13T17:26:56.645Z,51.63
2018-05-13T17:29:24.274Z,49.73
2018-05-13T17:31:52.104Z,49.93
2018-05-13T17:34:19.708Z,49.23
2018-05-13T17:36:47.313Z,45.53
2018-05-13T17:39:14.946Z,50.33
2018-05-13T17:41:43.338Z,47.80
2018-05-13T17:44:11.011Z,45.73
2018-05-13T17:46:38.635Z,48.87
2018-05-13T17:49:06.331Z,48.37
2018-05-13T17:51:34.745Z,48.63
2018-05-13T17:54:02.895Z,45.63
2018-05-13T17:56:30.585Z,45.57
2018-05-13T17:58:58.203Z,48.77
2018-05-13T18:01:26.651Z,47.93
2018-05-13T18:03:54.265Z,46.17
2018-05-13T18:06:21.921Z,44.57
2018-05-13T18:08:49.519Z,47.47
2018-05-13T18:11:17.890Z,45.10
2018-05-13T18:13:46.302Z,47.90
2018-05-13T18:16:13.948Z,46.73
2018-05-13T18:18:42.312Z,47.87
2018-05-13T18:21:10.671Z,43.47
2018-05-13T18:23:38.312Z,46.40
2018-05-13T18:26:05.972Z,46.37
2018-05-13T18:28:33.576Z,47.57
2018-05-13T18:31:02.020Z,51.70
2018-05-13T18:33:29.605Z,44.50
2018-05-13T18:35:57.179Z,50.17
2018-05-13T18:38:24.769Z,47.77
2018-05-13T18:40:52.333Z,50.83
2018-05-13T18:43:20.051Z,50.53
2018-05-13T18:45:47.719Z,54.20
2018-05-13T18:48:15.402Z,55.10
2018-05-13T18:50:43.174Z,51.47
2018-05-13T18:53:10.771Z,58.23
2018-05-13T18:55:38.393Z,54.73
2018-05-13T18:58:06.064Z,52.70
2018-05-13T19:00:33.654Z,53.27
2018-05-13T19:03:01.317Z,58.30
2018-05-13T19:05:28.998Z,60.47
2018-05-13T19:07:57.244Z,60.60
2018-05-13T19:10:24.880Z,62.37
2018-05-13T19:12:52.509Z,59.73
2018-05-13T19:15:20.133Z,60.23
2018-05-13T19:17:47.774Z,61.90
2018-05-13T19:20:16.178Z,66.13
2018-05-13T19:22:43.815Z,63.30
2018-05-13T19:25:12.221Z,63.97
2018-05-13T19:27:39.908Z,66.13
2018-05-13T19:30:07.521Z,63.43
2018-05-13T19:32:38.637Z,70.60
2018-05-13T19:35:06.352Z,71.17
2018-05-13T19:37:34.812Z,73.90
2018-05-13T19:40:03.288Z,76.20
2018-05-13T19:42:31.002Z,72.20
2018-05-13T19:44:58.762Z,75.60
2018-05-13T19:47:26.382Z,76.93
2018-05-13T19:49:54.068Z,73.17
2018-05-13T19:52:21.736Z,75.97
2018-05-13T19:54:50.368Z,83.00
2018-05-13T19:57:18.096Z,74.00
2018-05-13T19:59:47.431Z,70.17
2018-05-13T20:02:15.059Z,69.83
2018-05-13T20:04:42.767Z,71.07
2018-05-13T20:07:10.384Z,72.17
2018-05-13T20:09:38.049Z,72.03
2018-05-13T20:12:05.735Z,73.83
2018-05-13T20:14:33.291Z,71.77
2018-05-13T20:17:00.974Z,74.40
2018-05-13T20:19:29.349Z,71.40
2018-05-13T20:21:57.765Z,73.60
2018-05-13T20:24:25.390Z,76.57
2018-05-13T20:26:52.998Z,74.60
2018-05-13T20:29:20.593Z,73.90
2018-05-13T20:31:48.240Z,74.23
2018-05-13T20:34:15.836Z,70.23
2018-05-13T20:36:43.443Z,79.17
2018-05-13T20:39:11.800Z,71.47
2018-05-13T20:41:39.688Z,75.20
2018-05-13T20:44:08.065Z,77.30
2018-05-13T20:46:35.664Z,74.50
2018-05-13T20:49:03.397Z,79.93
2018-05-13T20:51:31.001Z,81.83
2018-05-13T20:53:58.659Z,80.67
2018-05-13T20:56:26.271Z,83.03
2018-05-13T20:58:53.849Z,86.83
2018-05-13T21:01:22.230Z,81.67
2018-05-13T21:03:50.789Z,81.27
2018-05-13T21:06:18.362Z,83.23
2018-05-13T21:08:46.017Z,84.40
2018-05-13T21:11:13.646Z,84.63
2018-05-13T21:13:42.086Z,88.43
2018-05-13T21:16:09.800Z,84.83
2018-05-13T21:18:37.374Z,86.23
2018-05-13T21:21:04.980Z,90.37
2018-05-13T21:23:32.563Z,88.60
2018-05-13T21:26:00.157Z,84.93
2018-05-13T21:28:27.799Z,84.00
2018-05-13T21:30:55.383Z,87.63
2018-05-13T21:33:23.793Z,84.07
2018-05-13T21:35:51.394Z,84.67
2018-05-13T21:38:19.001Z,86.70
2018-05-13T21:40:47.342Z,86.67
2018-05-13T21:43:14.967Z,84.73
2018-05-13T21:45:42.793Z,78.43
2018-05-13T21:48:10.421Z,79.17
2018-05-13T21:50:38.080Z,90.97
2018-05-13T21:53:05.729Z,86.17
2018-05-13T21:55:34.084Z,85.47
2018-05-13T21:58:01.798Z,88.77
2018-05-13T22:00:29.394Z,84.17
2018-05-13T22:02:57.018Z,92.13
2018-05-13T22:05:24.616Z,78.13
2018-05-13T22:07:52.271Z,75.63
2018-05-13T22:10:19.872Z,70.00
2018-05-13T22:12:47.501Z,76.70
2018-05-13T22:15:15.112Z,69.67
2018-05-13T22:17:43.480Z,73.40
2018-05-13T22:20:11.094Z,69.13
2018-05-13T22:22:38.716Z,72.47
2018-05-13T22:25:06.310Z,66.97
2018-05-13T22:27:34.661Z,70.57
2018-05-13T22:30:02.265Z,70.57
2018-05-13T22:32:30.197Z,68.07
2018-05-13T22:34:57.777Z,69.73
2018-05-13T22:37:25.388Z,70.93
2018-05-13T22:39:52.970Z,68.03
2018-05-13T22:42:20.588Z,66.17
2018-05-13T22:44:48.935Z,74.03
2018-05-13T22:47:16.538Z,70.23
2018-05-13T22:49:44.904Z,72.57
2018-05-13T22:52:12.512Z,69.70
2018-05-13T22:54:40.117Z,69.70
2018-05-13T22:57:07.726Z,66.73
2018-05-13T22:59:35.320Z,68.10
2018-05-13T23:02:03.642Z,65.90
2018-05-13T23:04:31.237Z,69.57
2018-05-13T23:06:58.823Z,65.40
2018-05-13T23:09:26.408Z,67.43
2018-05-13T23:11:53.997Z,68.23
2018-05-13T23:14:21.651Z,63.97
2018-05-13T23:16:50.110Z,62.90
2018-05-13T23:19:17.795Z,64.00
2018-05-13T23:21:45.399Z,68.20
2018-05-13T23:24:13.753Z,65.60
2018-05-13T23:26:41.362Z,63.83
2018-05-13T23:29:09.726Z,65.90
2018-05-13T23:31:38.142Z,67.47
2018-05-13T23:34:05.735Z,63.50
2018-05-13T23:36:33.338Z,62.50
2018-05-13T23:39:00.962Z,67.23
2018-05-13T23:41:28.573Z,70.43
2018-05-13T23:43:56.961Z,69.70
2018-05-13T23:46:25.325Z,67.47
2018-05-13T23:48:52.931Z,66.90
2018-05-13T23:51:20.530Z,67.87
2018-05-13T23:53:48.173Z,69.30
2018-05-13T23:56:15.760Z,65.60
2018-05-13T23:58:43.363Z,62.27
